createdAt,value
2018-10-07T00:01:27.258Z,14.30
2018-10-07T00:03:55.925Z,13.80
2018-10-07T00:06:24.690Z,14.07
2018-10-07T00:08:53.338Z,13.73
2018-10-07T00:11:22.005Z,13.70
2018-10-07T00:13:50.674Z,13.57
2018-10-07T00:16:19.369Z,12.77
2018-10-07T00:18:47.997Z,13.80
2018-10-07T00:21:16.758Z,13.60
2018-10-07T00:23:46.197Z,12.90
2018-10-07T00:26:14.874Z,12.63
2018-10-07T00:28:43.529Z,12.73
2018-10-07T00:33:46.081Z,13.10
2018-10-07T00:36:14.740Z,12.23
2018-10-07T00:38:43.421Z,12.73
2018-10-07T00:41:12.103Z,12.80
2018-10-07T00:43:40.783Z,12.90
2018-10-07T00:46:10.001Z,12.03
2018-10-07T00:48:38.815Z,12.30
2018-10-07T00:51:08.291Z,11.37
2018-10-07T00:53:37.001Z,12.03
2018-10-07T00:56:05.686Z,11.43
2018-10-07T00:58:34.353Z,11.73
2018-10-07T01:01:03.022Z,11.97
2018-10-07T01:03:31.650Z,12.70
2018-10-07T01:06:00.341Z,11.63
2018-10-07T01:08:28.977Z,11.50
2018-10-07T01:10:57.609Z,12.30
2018-10-07T01:13:26.283Z,11.60
2018-10-07T01:15:54.901Z,12.63
2018-10-07T01:18:23.577Z,12.03
2018-10-07T01:20:52.277Z,11.47
2018-10-07T01:23:20.952Z,10.60
2018-10-07T01:25:49.604Z,10.93
2018-10-07T01:28:18.378Z,11.63
2018-10-07T01:30:47.007Z,11.33
2018-10-07T01:33:15.648Z,11.13
2018-10-07T01:35:44.448Z,11.50
2018-10-07T01:38:13.162Z,12.27
2018-10-07T01:40:41.921Z,11.33
2018-10-07T01:43:10.572Z,12.00
2018-10-07T01:45:39.244Z,12.53
2018-10-07T01:48:07.969Z,12.17
2018-10-07T01:50:36.601Z,11.40
2018-10-07T01:53:05.241Z,12.87
2018-10-07T01:55:33.894Z,13.03
2018-10-07T01:58:02.544Z,12.97
2018-10-07T02:00:31.213Z,12.80
2018-10-07T02:02:59.867Z,13.23
2018-10-07T02:05:28.547Z,13.63
2018-10-07T02:07:57.197Z,14.20
2018-10-07T02:10:25.864Z,13.67
2018-10-07T02:12:54.531Z,12.90
2018-10-07T02:15:23.237Z,13.67
2018-10-07T02:17:51.854Z,13.30
2018-10-07T02:20:20.557Z,13.47
2018-10-07T02:22:49.234Z,12.40
2018-10-07T02:25:17.885Z,14.60
2018-10-07T02:27:46.640Z,12.70
2018-10-07T02:30:15.314Z,12.50
2018-10-07T02:32:44.069Z,13.23
2018-10-07T02:35:12.878Z,13.30
2018-10-07T02:37:41.548Z,12.97
2018-10-07T02:40:10.219Z,13.00
2018-10-07T02:42:38.861Z,13.80
2018-10-07T02:45:13.873Z,13.30
2018-10-07T02:47:42.520Z,13.63
2018-10-07T02:50:19.676Z,14.13
2018-10-07T02:52:50.166Z,14.30
2018-10-07T02:55:23.363Z,14.30
2018-10-07T02:57:53.637Z,13.57
2018-10-07T03:00:22.323Z,14.20
2018-10-07T03:02:51.521Z,14.63
2018-10-07T03:05:20.226Z,14.60
2018-10-07T03:07:49.329Z,13.93
2018-10-07T03:10:18.087Z,14.43
2018-10-07T03:12:46.875Z,13.67
2018-10-07T03:15:15.575Z,13.27
2018-10-07T03:17:44.218Z,15.60
2018-10-07T03:20:12.921Z,14.10
2018-10-07T03:22:41.654Z,13.20
2018-10-07T03:25:10.373Z,14.33
2018-10-07T03:27:39.085Z,14.87
2018-10-07T03:30:14.330Z,15.27
2018-10-07T03:32:42.937Z,14.33
2018-10-07T03:35:11.652Z,13.90
2018-10-07T03:37:40.302Z,14.57
2018-10-07T03:40:09.092Z,13.60
2018-10-07T03:42:37.735Z,14.50
2018-10-07T03:45:06.445Z,14.50
2018-10-07T03:47:35.117Z,13.40
2018-10-07T03:50:03.810Z,13.47
2018-10-07T03:52:32.426Z,15.00
2018-10-07T03:55:01.066Z,14.47
2018-10-07T03:57:29.700Z,14.77
2018-10-07T03:59:58.400Z,15.80
2018-10-07T04:02:27.109Z,15.43
2018-10-07T04:04:55.785Z,14.03
2018-10-07T04:07:24.594Z,15.53
2018-10-07T04:09:53.323Z,16.20
2018-10-07T04:12:21.983Z,17.40
2018-10-07T04:14:50.722Z,17.80
2018-10-07T04:17:19.393Z,15.87
2018-10-07T04:19:48.081Z,16.50
2018-10-07T04:22:16.818Z,17.60
2018-10-07T04:24:45.557Z,17.37
2018-10-07T04:27:14.270Z,16.90
2018-10-07T04:29:42.925Z,15.70
2018-10-07T04:32:11.632Z,16.67
2018-10-07T04:34:40.292Z,17.40
2018-10-07T04:37:08.983Z,18.40
2018-10-07T04:39:38.801Z,19.00
2018-10-07T04:42:07.576Z,21.70
2018-10-07T04:44:36.361Z,25.47
2018-10-07T04:47:05.165Z,22.60
2018-10-07T04:49:33.947Z,26.63
2018-10-07T04:52:02.605Z,23.90
2018-10-07T04:54:31.249Z,26.17
2018-10-07T04:56:59.949Z,25.33
2018-10-07T04:59:31.441Z,25.33
2018-10-07T05:02:00.217Z,27.17
2018-10-07T05:04:28.907Z,27.03
2018-10-07T05:06:57.805Z,27.57
2018-10-07T05:09:26.476Z,28.20
2018-10-07T05:11:57.314Z,28.40
2018-10-07T05:14:26.094Z,30.10
2018-10-07T05:16:54.881Z,29.77
2018-10-07T05:19:23.554Z,29.37
2018-10-07T05:21:52.309Z,28.87
2018-10-07T05:24:21.100Z,29.13
2018-10-07T05:26:49.924Z,27.10
2018-10-07T05:29:18.689Z,29.27
2018-10-07T05:31:47.415Z,29.17
2018-10-07T05:34:16.115Z,30.33
2018-10-07T05:36:44.813Z,29.17
2018-10-07T05:39:13.700Z,29.13
2018-10-07T05:41:42.403Z,28.80
2018-10-07T05:44:11.172Z,30.37
2018-10-07T05:46:39.782Z,30.43
2018-10-07T05:49:08.503Z,31.63
2018-10-07T05:51:37.154Z,31.60
2018-10-07T05:54:05.881Z,30.73
2018-10-07T05:56:34.525Z,31.87
2018-10-07T05:59:03.249Z,31.53
2018-10-07T06:01:46.419Z,29.70
2018-10-07T06:04:31.794Z,30.47
2018-10-07T06:07:01.710Z,28.70
2018-10-07T06:09:33.517Z,29.43
2018-10-07T06:12:02.238Z,29.67
2018-10-07T06:14:41.899Z,28.23
2018-10-07T06:17:10.559Z,28.97
2018-10-07T06:19:39.821Z,27.27
2018-10-07T06:22:08.580Z,28.00
2018-10-07T06:24:37.377Z,27.37
2018-10-07T06:27:06.619Z,29.20
2018-10-07T06:29:35.360Z,27.50
2018-10-07T06:32:04.061Z,30.17
2018-10-07T06:34:32.981Z,30.53
2018-10-07T06:37:01.728Z,28.57
2018-10-07T06:39:30.404Z,29.33
2018-10-07T06:41:59.164Z,27.97
2018-10-07T06:44:27.902Z,26.40
2018-10-07T06:46:56.747Z,29.83
2018-10-07T06:49:25.413Z,26.67
2018-10-07T06:51:54.110Z,28.47
2018-10-07T06:54:22.809Z,28.43
2018-10-07T06:56:51.665Z,28.10
2018-10-07T06:59:20.335Z,27.27
2018-10-07T07:01:49.024Z,27.80
2018-10-07T07:04:17.702Z,28.13
2018-10-07T07:06:46.389Z,28.73
2018-10-07T07:09:15.125Z,28.17
2018-10-07T07:11:43.808Z,28.47
2018-10-07T07:14:12.757Z,28.90
2018-10-07T07:16:41.455Z,29.40
2018-10-07T07:19:10.103Z,30.10
2018-10-07T07:21:38.792Z,29.47
2018-10-07T07:24:07.498Z,30.00
2018-10-07T07:26:36.238Z,30.23
2018-10-07T07:29:05.031Z,31.80
2018-10-07T07:31:33.738Z,28.80
2018-10-07T07:34:02.495Z,27.60
2018-10-07T07:36:31.761Z,28.53
2018-10-07T07:39:00.524Z,27.47
2018-10-07T07:41:29.309Z,28.27
2018-10-07T07:43:58.032Z,28.50
2018-10-07T07:46:26.783Z,27.90
2018-10-07T07:48:55.473Z,28.38
2018-10-07T07:51:24.128Z,28.17
2018-10-07T07:53:52.773Z,26.77
2018-10-07T07:56:21.424Z,27.87
2018-10-07T07:58:50.183Z,26.60
2018-10-07T08:01:18.926Z,26.50
2018-10-07T08:03:47.558Z,26.87
2018-10-07T08:06:16.232Z,28.20
2018-10-07T08:08:44.960Z,27.30
2018-10-07T08:11:13.618Z,25.70
2018-10-07T08:13:42.317Z,25.47
2018-10-07T08:16:11.045Z,26.57
2018-10-07T08:18:39.733Z,26.30
2018-10-07T08:21:08.450Z,26.27
2018-10-07T08:23:37.175Z,26.77
2018-10-07T08:26:05.938Z,24.50
2018-10-07T08:28:34.633Z,24.90
2018-10-07T08:31:03.337Z,27.40
2018-10-07T08:33:32.024Z,25.50
2018-10-07T08:36:00.745Z,25.93
2018-10-07T08:38:29.457Z,26.47
2018-10-07T08:40:58.122Z,26.43
2018-10-07T08:43:26.790Z,27.20
2018-10-07T08:45:55.486Z,26.73
2018-10-07T08:48:24.158Z,25.60
2018-10-07T08:50:52.870Z,24.43
2018-10-07T08:53:21.553Z,26.70
2018-10-07T08:55:50.277Z,27.00
2018-10-07T08:58:19.008Z,25.57
2018-10-07T09:00:47.777Z,25.83
2018-10-07T09:03:16.476Z,25.40
2018-10-07T09:05:45.213Z,25.63
2018-10-07T09:08:13.945Z,24.70
2018-10-07T09:10:42.673Z,25.37
2018-10-07T09:13:11.400Z,25.87
2018-10-07T09:15:40.048Z,26.70
2018-10-07T09:18:08.830Z,23.57
2018-10-07T09:20:37.501Z,21.83
2018-10-07T09:23:06.354Z,20.80
2018-10-07T09:25:35.086Z,18.70
2018-10-07T09:28:03.885Z,16.67
2018-10-07T09:30:32.797Z,16.87
2018-10-07T09:33:01.482Z,17.57
2018-10-07T09:35:32.721Z,19.20
2018-10-07T09:38:01.386Z,19.87
2018-10-07T09:40:30.647Z,16.93
2018-10-07T09:42:59.381Z,16.33
2018-10-07T09:45:28.143Z,16.00
2018-10-07T09:47:56.980Z,16.27
2018-10-07T09:50:25.689Z,17.60
2018-10-07T09:52:54.350Z,16.27
2018-10-07T09:55:23.063Z,14.60
2018-10-07T09:57:51.817Z,15.17
2018-10-07T10:00:25.425Z,15.00
2018-10-07T10:02:54.136Z,15.30
2018-10-07T10:05:22.847Z,14.43
2018-10-07T10:07:51.545Z,13.70
2018-10-07T10:10:20.249Z,13.10
2018-10-07T10:12:48.952Z,12.80
2018-10-07T10:15:17.685Z,13.70
2018-10-07T10:17:48.249Z,13.20
2018-10-07T10:20:21.281Z,11.33
2018-10-07T10:23:04.473Z,11.20
2018-10-07T10:25:44.979Z,11.10
2018-10-07T10:28:25.284Z,12.20
2018-10-07T10:31:14.359Z,11.23
2018-10-07T10:33:49.872Z,10.50
2018-10-07T10:36:28.117Z,10.80
2018-10-07T10:39:19.217Z,10.17
2018-10-07T10:42:53.885Z,10.20
2018-10-07T10:45:26.848Z,10.40
2018-10-07T10:47:58.789Z,11.13
2018-10-07T10:50:39.713Z,9.60
2018-10-07T10:53:21.663Z,12.10
2018-10-07T10:56:11.239Z,10.53
2018-10-07T11:00:54.584Z,10.70
2018-10-07T11:04:26.927Z,11.33
2018-10-07T11:07:13.354Z,10.73
2018-10-07T11:09:51.293Z,11.90
2018-10-07T11:12:30.385Z,12.60
2018-10-07T11:15:09.018Z,11.23
2018-10-07T11:17:48.980Z,11.17
2018-10-07T11:20:26.509Z,11.67
2018-10-07T11:23:06.194Z,10.90
2018-10-07T11:25:46.402Z,11.60
2018-10-07T11:28:23.157Z,10.43
2018-10-07T11:31:06.780Z,12.53
2018-10-07T11:35:51.844Z,15.20
2018-10-07T11:38:29.226Z,15.20
2018-10-07T11:41:33.577Z,13.80
2018-10-07T11:44:10.845Z,14.77
2018-10-07T11:49:04.416Z,14.43
2018-10-07T11:52:56.287Z,12.40
2018-10-07T11:55:24.966Z,13.17
2018-10-07T11:57:53.657Z,10.60
2018-10-07T12:00:22.517Z,12.83
2018-10-07T12:02:51.302Z,12.03
2018-10-07T12:05:19.944Z,11.00
2018-10-07T12:07:48.759Z,11.40
2018-10-07T12:10:17.552Z,12.07
2018-10-07T12:12:46.222Z,10.43
2018-10-07T12:15:14.958Z,10.37
2018-10-07T12:17:43.664Z,9.47
2018-10-07T12:20:12.619Z,9.37
2018-10-07T12:22:43.260Z,10.60
2018-10-07T12:25:11.981Z,10.07
2018-10-07T12:27:40.681Z,9.60
2018-10-07T12:30:09.450Z,8.30
2018-10-07T12:32:38.096Z,4.40
2018-10-07T12:35:06.825Z,4.63
2018-10-07T12:37:35.541Z,3.40
2018-10-07T12:40:04.343Z,3.97
2018-10-07T12:42:39.644Z,3.50
2018-10-07T12:45:08.348Z,4.17
2018-10-07T12:47:37.034Z,3.67
2018-10-07T12:50:05.817Z,4.00
2018-10-07T12:52:35.471Z,3.77
2018-10-07T12:55:04.202Z,4.00
2018-10-07T12:57:32.946Z,3.40
2018-10-07T13:00:01.703Z,4.20
2018-10-07T13:02:30.452Z,3.80
2018-10-07T13:04:59.170Z,4.20
2018-10-07T13:07:27.983Z,3.93
2018-10-07T13:09:56.710Z,4.27
2018-10-07T13:12:25.405Z,4.33
2018-10-07T13:14:54.092Z,4.80
2018-10-07T13:17:25.713Z,4.33
2018-10-07T13:19:54.361Z,4.57
2018-10-07T13:22:23.042Z,4.47
2018-10-07T13:24:51.697Z,4.20
2018-10-07T13:27:20.423Z,4.20
2018-10-07T13:29:49.109Z,4.97
2018-10-07T13:32:17.829Z,4.47
2018-10-07T13:34:46.502Z,4.50
2018-10-07T13:37:15.160Z,4.43
2018-10-07T13:39:43.891Z,4.17
2018-10-07T13:42:12.603Z,4.03
2018-10-07T13:44:41.328Z,4.07
2018-10-07T13:47:10.046Z,4.27
2018-10-07T13:49:38.709Z,4.03
2018-10-07T13:52:07.473Z,3.90
2018-10-07T13:54:36.170Z,4.10
2018-10-07T13:57:04.830Z,4.50
2018-10-07T13:59:33.575Z,4.50
2018-10-07T14:02:02.264Z,3.83
2018-10-07T14:04:31.013Z,4.40
2018-10-07T14:06:59.730Z,4.40
2018-10-07T14:09:28.432Z,4.33
2018-10-07T14:11:57.216Z,4.13
2018-10-07T14:14:25.878Z,4.30
2018-10-07T14:16:54.593Z,4.13
2018-10-07T14:19:23.585Z,3.77
2018-10-07T14:21:52.414Z,4.10
2018-10-07T14:24:21.133Z,4.10
2018-10-07T14:26:49.820Z,3.73
2018-10-07T14:29:18.608Z,4.00
2018-10-07T14:34:25.773Z,3.90
2018-10-07T14:36:54.470Z,3.43
2018-10-07T14:39:23.222Z,4.20
2018-10-07T14:41:51.831Z,4.13
2018-10-07T14:44:20.745Z,3.70
2018-10-07T14:46:49.452Z,3.80
2018-10-07T14:49:18.228Z,4.27
2018-10-07T14:51:46.869Z,3.40
2018-10-07T14:54:15.596Z,4.00
2018-10-07T14:56:44.262Z,3.83
2018-10-07T14:59:13.409Z,3.57
2018-10-07T15:01:43.592Z,3.90
2018-10-07T15:04:12.373Z,3.87
2018-10-07T15:06:41.157Z,4.50
2018-10-07T15:09:11.250Z,4.40
2018-10-07T15:11:40.059Z,3.87
2018-10-07T15:14:09.337Z,4.43
2018-10-07T15:16:38.185Z,4.30
2018-10-07T15:19:07.063Z,4.40
2018-10-07T15:21:35.757Z,4.03
2018-10-07T15:24:04.476Z,4.23
2018-10-07T15:26:33.170Z,4.30
2018-10-07T15:29:01.848Z,4.13
2018-10-07T15:31:30.549Z,4.07
2018-10-07T15:33:59.217Z,3.87
2018-10-07T15:36:27.951Z,3.53
2018-10-07T15:38:56.641Z,3.97
2018-10-07T15:41:25.354Z,4.20
2018-10-07T15:43:54.076Z,4.40
2018-10-07T15:46:22.777Z,4.53
2018-10-07T15:48:51.479Z,4.80
2018-10-07T15:51:25.242Z,4.33
2018-10-07T15:53:53.953Z,4.10
2018-10-07T15:56:22.669Z,4.17
2018-10-07T15:58:51.364Z,5.37
2018-10-07T16:01:20.080Z,4.37
2018-10-07T16:03:48.961Z,4.70
2018-10-07T16:06:17.642Z,4.60
2018-10-07T16:08:46.371Z,4.33
2018-10-07T16:11:15.088Z,4.37
2018-10-07T16:13:43.860Z,4.60
2018-10-07T16:16:13.209Z,4.90
2018-10-07T16:18:41.945Z,4.87
2018-10-07T16:21:10.698Z,4.90
2018-10-07T16:23:39.440Z,5.03
2018-10-07T16:26:08.284Z,4.60
2018-10-07T16:28:36.961Z,5.30
2018-10-07T16:31:05.656Z,5.53
2018-10-07T16:33:34.402Z,5.10
2018-10-07T16:36:03.054Z,4.87
2018-10-07T16:38:32.076Z,5.77
2018-10-07T16:41:00.786Z,5.00
2018-10-07T16:43:29.502Z,4.80
2018-10-07T16:45:58.188Z,5.70
2018-10-07T16:48:26.947Z,4.70
2018-10-07T16:50:55.644Z,5.20
2018-10-07T16:53:24.332Z,4.87
2018-10-07T16:55:53.040Z,5.07
2018-10-07T16:58:21.751Z,4.30
2018-10-07T17:00:55.915Z,4.70
2018-10-07T17:03:24.608Z,4.90
2018-10-07T17:05:53.265Z,4.40
2018-10-07T17:08:21.942Z,4.43
2018-10-07T17:10:50.650Z,4.40
2018-10-07T17:13:19.370Z,4.43
2018-10-07T17:15:48.166Z,4.30
2018-10-07T17:18:16.850Z,3.53
2018-10-07T17:20:45.628Z,5.60
2018-10-07T17:23:14.404Z,6.13
2018-10-07T17:25:43.114Z,4.03
2018-10-07T17:28:12.100Z,3.97
2018-10-07T17:30:40.816Z,4.23
2018-10-07T17:33:09.589Z,3.70
2018-10-07T17:35:38.358Z,4.40
2018-10-07T17:38:07.514Z,4.30
2018-10-07T17:40:36.316Z,3.90
2018-10-07T17:43:04.999Z,4.20
2018-10-07T17:45:33.738Z,4.10
2018-10-07T17:48:02.487Z,4.17
2018-10-07T17:50:31.225Z,3.80
2018-10-07T17:52:59.965Z,4.00
2018-10-07T17:55:28.830Z,4.43
2018-10-07T17:57:57.536Z,4.50
2018-10-07T18:00:26.335Z,4.23
2018-10-07T18:02:55.169Z,4.40
2018-10-07T18:05:23.721Z,4.20
2018-10-07T18:07:52.614Z,4.50
2018-10-07T18:10:21.372Z,3.90
2018-10-07T18:12:50.070Z,4.97
2018-10-07T18:15:18.758Z,4.30
2018-10-07T18:17:47.417Z,4.63
2018-10-07T18:20:16.127Z,4.53
2018-10-07T18:22:44.841Z,5.03
2018-10-07T18:25:13.535Z,5.20
2018-10-07T18:27:42.221Z,4.20
2018-10-07T18:30:10.944Z,5.33
2018-10-07T18:32:39.759Z,5.07
2018-10-07T18:35:08.483Z,4.40
2018-10-07T18:37:37.543Z,5.73
2018-10-07T18:40:06.433Z,5.23
2018-10-07T18:42:35.134Z,5.77
2018-10-07T18:45:03.834Z,6.20
2018-10-07T18:47:32.739Z,6.13
2018-10-07T18:50:01.485Z,5.83
2018-10-07T18:52:31.082Z,6.73
2018-10-07T18:54:59.852Z,5.70
2018-10-07T18:57:28.689Z,5.97
2018-10-07T18:59:57.470Z,5.83
2018-10-07T19:02:26.267Z,6.10
2018-10-07T19:04:55.111Z,6.00
2018-10-07T19:07:23.813Z,5.90
2018-10-07T19:09:52.698Z,5.40
2018-10-07T19:12:24.129Z,6.50
2018-10-07T19:14:52.885Z,5.80
2018-10-07T19:17:21.645Z,5.87
2018-10-07T19:19:50.436Z,6.10
2018-10-07T19:22:25.796Z,5.37
2018-10-07T19:24:54.517Z,6.43
2018-10-07T19:27:23.235Z,6.33
2018-10-07T19:29:51.975Z,6.77
2018-10-07T19:32:20.616Z,6.07
2018-10-07T19:34:49.328Z,6.17
2018-10-07T19:37:18.166Z,6.60
2018-10-07T19:39:46.784Z,5.90
2018-10-07T19:42:15.513Z,6.83
2018-10-07T19:44:44.296Z,6.17
2018-10-07T19:47:13.002Z,7.47
2018-10-07T19:49:43.210Z,6.57
2018-10-07T19:54:40.940Z,6.25
2018-10-07T19:57:09.678Z,7.30
2018-10-07T19:59:38.414Z,7.57
2018-10-07T20:02:07.221Z,7.70
2018-10-07T20:04:36.011Z,7.27
2018-10-07T20:07:04.962Z,7.30
2018-10-07T20:09:34.001Z,8.53
2018-10-07T20:12:02.797Z,8.50
2018-10-07T20:14:31.513Z,7.70
2018-10-07T20:17:00.718Z,8.33
2018-10-07T20:19:29.846Z,7.80
2018-10-07T20:21:58.879Z,9.03
2018-10-07T20:24:27.679Z,8.40
2018-10-07T20:26:56.651Z,8.23
2018-10-07T20:29:25.701Z,7.80
2018-10-07T20:31:54.734Z,8.60
2018-10-07T20:34:23.812Z,7.70
2018-10-07T20:36:52.894Z,9.07
2018-10-07T20:39:21.637Z,8.63
2018-10-07T20:41:50.359Z,8.00
2018-10-07T20:44:19.183Z,8.80
2018-10-07T20:46:47.913Z,9.23
2018-10-07T20:49:16.729Z,9.07
2018-10-07T20:51:45.441Z,10.00
2018-10-07T20:54:14.184Z,8.90
2018-10-07T20:56:42.878Z,9.80
2018-10-07T20:59:11.601Z,9.37
2018-10-07T21:01:40.338Z,10.70
2018-10-07T21:04:09.144Z,9.60
2018-10-07T21:06:38.024Z,9.73
2018-10-07T21:09:09.576Z,10.37
2018-10-07T21:11:38.606Z,10.23
2018-10-07T21:14:07.538Z,10.10
2018-10-07T21:16:36.246Z,11.20
2018-10-07T21:19:05.027Z,9.90
2018-10-07T21:21:33.724Z,10.90
2018-10-07T21:24:03.010Z,10.40
2018-10-07T21:26:31.766Z,10.77
2018-10-07T21:29:01.490Z,10.40
2018-10-07T21:31:30.216Z,10.93
2018-10-07T21:33:58.935Z,9.80
2018-10-07T21:36:27.629Z,10.30
2018-10-07T21:38:56.451Z,11.20
2018-10-07T21:41:25.330Z,11.60
2018-10-07T21:43:54.017Z,10.80
2018-10-07T21:46:22.885Z,9.83
2018-10-07T21:48:51.661Z,11.77
2018-10-07T21:51:20.474Z,10.70
2018-10-07T21:53:49.137Z,10.77
2018-10-07T21:56:17.834Z,12.30
2018-10-07T21:58:46.498Z,11.53
2018-10-07T22:01:15.244Z,12.37
2018-10-07T22:03:43.913Z,12.70
2018-10-07T22:06:12.672Z,12.70
2018-10-07T22:08:41.381Z,11.70
2018-10-07T22:11:10.137Z,13.70
2018-10-07T22:13:38.805Z,13.20
2018-10-07T22:16:07.551Z,14.13
2018-10-07T22:18:36.225Z,13.87
2018-10-07T22:21:04.940Z,13.40
2018-10-07T22:23:33.762Z,13.70
2018-10-07T22:26:02.470Z,13.80
2018-10-07T22:28:31.125Z,14.03
2018-10-07T22:31:00.190Z,14.70
2018-10-07T22:33:29.046Z,13.93
2018-10-07T22:35:57.924Z,14.00
2018-10-07T22:38:26.601Z,15.70
2018-10-07T22:40:57.856Z,15.47
2018-10-07T22:43:28.648Z,15.80
2018-10-07T22:45:58.739Z,15.77
2018-10-07T22:48:27.424Z,15.73
2018-10-07T22:50:56.140Z,19.03
2018-10-07T22:53:29.252Z,20.17
2018-10-07T22:55:57.964Z,18.70
2018-10-07T22:58:26.642Z,19.17
2018-10-07T23:00:55.305Z,20.63
2018-10-07T23:03:23.983Z,21.40
2018-10-07T23:05:52.659Z,20.90
2018-10-07T23:08:21.342Z,21.37
2018-10-07T23:10:50.028Z,21.60
2018-10-07T23:13:18.694Z,22.10
2018-10-07T23:15:47.509Z,21.53
2018-10-07T23:18:16.226Z,24.30
2018-10-07T23:20:44.931Z,22.57
2018-10-07T23:23:13.778Z,24.83
2018-10-07T23:25:42.494Z,26.10
2018-10-07T23:28:11.126Z,25.77
2018-10-07T23:30:39.813Z,24.47
2018-10-07T23:33:08.514Z,27.33
2018-10-07T23:35:37.197Z,26.60
2018-10-07T23:38:06.185Z,27.57
2018-10-07T23:40:34.962Z,29.10
2018-10-07T23:43:03.632Z,28.33
2018-10-07T23:45:32.320Z,30.00
2018-10-07T23:48:01.121Z,30.90
2018-10-07T23:50:29.816Z,32.93
2018-10-07T23:52:58.484Z,29.40
2018-10-07T23:55:27.167Z,32.37
2018-10-07T23:57:55.837Z,32.73
